Hauptseite
METAR-TAF:

METAR-TAF

Flughäfen :

Gran Canaria, Spanien

Flughafen Gran Canaria

Breite: 27-56N, Länge: 015-23W, Höhe: 23 m

Beobachtung

Neuester Wetterbericht von vor 15 Minuten, um 01:00 UTC
Wind 15 kt aus Nord
Temperatur 17°C
Luftfeuchtigkeit 72%
Luftdruck 1023 hPa
Sichtweite 10 km oder mehr
Leicht bewölkt in der Höhe von 2500 ft

METAR: GCLP 290100Z 01015KT 9999 FEW025 17/12 Q1023 NOSIG

Zeit: 02:15 (01:15 UTC)

Prognose

Neuester Wetterbericht von vor 5 Stunden und 15 Minuten, um 20:00 UTC
Gültige Prognose vom 28 um 21 UTC bis 29 um 21 UTC
Wind 13 kt aus Nord/Nordwest
Sichtweite 10 km oder mehr
Leicht bewölkt in der Höhe von 3000 ft
Übergehend zu
vom 29 um 08 UTC bis 29 um 09 UTC
Wind 16 kt aus Nord/Nordost

TAF: GCLP 282000Z 2821/2921 33013KT 9999 FEW030 TX22/2913Z TN15/2906Z BECMG 2908/2909 03016KT

Wetterbeobachtungen und Prognosen von mehr als 4000 Flughäfen (METAR und TAF Bericht).

Die verfügbaren Stationen werden durch gelbe und rote Markierungen auf der Karte dargestellt.

Führen Sie die Maus auf sie, um den Namen der Station zu sehen.

Darauf klicken, um die Beobachtung von Wetterbeobachtungen und Prognosen zu sehen.

Um die Karte zu ändern : klicken Sie auf den grünen Tasten mit einem schwarzen Kreuz Zum Vergrößern, auf den grünen Button mit einem Gedankenstrich zu verkleinern, oder auf die grünen Pfeile für benachbarte Karten.


METAR-TAF: